Terminal Aerodrome Forecast
Issued by NWS Duluth, MN

Home | Current Version | Previous Version | Text Only | Print | Product List | Glossary On
Versions: 1 2 3 4 5 6 7 8 9 10 11 12 13 14 15 16 17 18 19 20 21 22 23 24 25 26 27 28
000
FTUS43 KDLH 281100 RRA
TAFDLH
TAF
KDLH 281142Z 2812/2912 18005KT P6SM SKC
     FM281800 19012G20KT P6SM SCT200
     FM290000 20010KT P6SM BKN120
     FM290400 20012KT P6SM SCT030 BKN060 WS020/21045KT
     FM291000 21012KT P6SM -RA BKN025 OVC040 WS020/22045KT=

USA.gov is the U.S. government's official web portal to all federal, state and local government web resources and services.